Time;durP1;ratioP1;P1;durP2;ratioP2;P2;SDS_P1;SDS_P2;PMS_P1;PMS_P2;Temp;Humidity;BMP_temperature;BMP_pressure;BME280_temperature;BME280_humidity;BME280_pressure;Samples;Min_cycle;Max_cycle;Signal;HPM_P1;HPM_P2
2022/03/26 00:01:38;;;;;;;3.42;2.83;;;;;;;-148.56;100.00;61375.16;4953523;28;20030;-33
2022/03/26 00:04:03;;;;;;;4.05;3.17;;;;;;;-148.56;100.00;61375.16;4972821;28;20962;-36
2022/03/26 00:06:29;;;;;;;3.60;2.80;;;;;;;-148.56;100.00;61375.16;4972415;28;20027;-36
2022/03/26 00:08:54;;;;;;;6.05;2.75;;;;;;;-148.56;100.00;61375.16;4973816;28;20030;-34
2022/03/26 00:11:20;;;;;;;5.35;2.95;;;;;;;-148.56;100.00;61375.16;4974708;28;20022;-35
2022/03/26 00:13:45;;;;;;;4.38;2.80;;;;;;;-148.56;100.00;61375.16;4970407;28;20023;-32
2022/03/26 00:16:11;;;;;;;4.50;2.88;;;;;;;-148.56;100.00;61375.16;4973831;28;20030;-33
2022/03/26 00:18:36;;;;;;;4.47;2.70;;;;;;;-148.56;100.00;61375.16;4972692;28;20073;-30
2022/03/26 00:21:02;;;;;;;3.17;2.70;;;;;;;-148.56;100.00;61375.16;4971532;28;20046;-31
2022/03/26 00:23:27;;;;;;;3.78;2.65;;;;;;;-148.56;100.00;61375.16;4973410;28;20065;-33
2022/03/26 00:25:54;;;;;;;4.43;2.80;;;;;;;-148.56;100.00;61375.16;4970723;28;20034;-33
2022/03/26 00:28:19;;;;;;;4.10;2.70;;;;;;;-148.56;100.00;61375.16;4946942;28;20037;-31
2022/03/26 00:30:45;;;;;;;4.35;2.80;;;;;;;-148.56;100.00;61375.16;4973479;28;20019;-34
2022/03/26 00:33:10;;;;;;;4.30;2.90;;;;;;;-148.56;100.00;61375.16;4969951;28;20444;-29
2022/03/26 00:35:35;;;;;;;3.00;2.63;;;;;;;-148.56;100.00;61375.16;4969643;28;20027;-33
2022/03/26 00:38:01;;;;;;;3.67;2.60;;;;;;;-148.56;100.00;61375.16;4970399;28;20034;-34
2022/03/26 00:40:26;;;;;;;3.17;2.78;;;;;;;-148.56;100.00;61375.16;4972380;28;20042;-30
2022/03/26 00:42:52;;;;;;;3.25;2.83;;;;;;;-148.56;100.00;61375.16;4974082;28;20033;-34
2022/03/26 00:45:17;;;;;;;3.05;2.50;;;;;;;-148.56;100.00;61375.16;4972967;28;20433;-30
2022/03/26 00:47:43;;;;;;;3.60;2.60;;;;;;;-148.56;100.00;61375.16;4971640;28;20026;-30
2022/03/26 00:50:08;;;;;;;4.40;2.70;;;;;;;-148.56;100.00;61375.16;4969165;28;20618;-36
2022/03/26 00:52:34;;;;;;;3.33;2.70;;;;;;;-148.56;100.00;61375.16;4964081;28;20037;-31
2022/03/26 00:54:59;;;;;;;3.22;2.70;;;;;;;-148.56;100.00;61375.16;4972196;28;20062;-31
2022/03/26 00:57:25;;;;;;;3.40;2.45;;;;;;;-148.56;100.00;61375.16;4972287;28;20027;-32
2022/03/26 00:59:50;;;;;;;3.75;2.58;;;;;;;-148.56;100.00;61375.16;4968437;28;20116;-32
2022/03/26 01:02:16;;;;;;;3.13;2.83;;;;;;;-148.56;100.00;61375.16;4973659;28;20557;-30
2022/03/26 01:04:42;;;;;;;4.82;2.65;;;;;;;-148.56;100.00;61375.16;4958423;28;20061;-33
2022/03/26 01:07:07;;;;;;;3.95;2.80;;;;;;;-148.56;100.00;61375.16;4971030;28;20022;-32
2022/03/26 01:09:33;;;;;;;3.45;2.90;;;;;;;-148.56;100.00;61375.16;4973786;28;20701;-29
2022/03/26 01:11:58;;;;;;;3.53;2.92;;;;;;;-148.56;100.00;61375.16;4970021;28;20135;-35
2022/03/26 01:14:23;;;;;;;5.20;2.50;;;;;;;-148.56;100.00;61375.16;4968854;28;20034;-37
2022/03/26 01:16:49;;;;;;;5.50;2.90;;;;;;;-148.56;100.00;61375.16;4971887;28;20026;-33
2022/03/26 01:19:15;;;;;;;3.80;2.58;;;;;;;-148.56;100.00;61375.16;4972520;28;20470;-36
2022/03/26 01:21:40;;;;;;;3.35;2.40;;;;;;;-148.56;100.00;61375.16;4972336;28;20558;-34
2022/03/26 01:24:06;;;;;;;4.82;2.60;;;;;;;-148.56;100.00;61375.16;4967280;28;20027;-34
2022/03/26 01:26:31;;;;;;;4.43;2.63;;;;;;;-148.56;100.00;61375.16;4970778;28;20109;-35
2022/03/26 01:28:57;;;;;;;5.07;2.55;;;;;;;-148.56;100.00;61375.16;4972041;28;20022;-34
2022/03/26 01:31:22;;;;;;;4.18;2.83;;;;;;;-148.56;100.00;61375.16;4971117;28;20027;-30
2022/03/26 01:33:48;;;;;;;4.43;3.00;;;;;;;-148.56;100.00;61375.16;4973486;28;20026;-34
2022/03/26 01:36:14;;;;;;;3.80;2.55;;;;;;;-148.56;100.00;61375.16;4972957;28;20438;-33
2022/03/26 01:38:39;;;;;;;3.78;2.42;;;;;;;-148.56;100.00;61375.16;4968340;28;20092;-38
2022/03/26 01:41:04;;;;;;;3.63;2.88;;;;;;;-148.56;100.00;61375.16;4971840;28;20041;-34
2022/03/26 01:43:30;;;;;;;4.38;2.78;;;;;;;-148.56;100.00;61375.16;4970165;28;20033;-32
2022/03/26 01:45:55;;;;;;;3.88;2.55;;;;;;;-148.56;100.00;61375.16;4970909;28;20089;-34
2022/03/26 01:48:21;;;;;;;3.17;2.83;;;;;;;-148.56;100.00;61375.16;4967785;28;20093;-35
2022/03/26 01:50:46;;;;;;;4.85;2.67;;;;;;;-148.56;100.00;61375.16;4966407;28;20053;-34
2022/03/26 01:53:12;;;;;;;3.30;2.78;;;;;;;-148.56;100.00;61375.16;4970435;28;20901;-32
2022/03/26 01:55:37;;;;;;;5.18;2.45;;;;;;;-148.56;100.00;61375.16;4971547;28;20378;-30
2022/03/26 01:58:02;;;;;;;5.00;3.13;;;;;;;-148.56;100.00;61375.16;4969722;28;20027;-34
2022/03/26 02:00:28;;;;;;;3.22;2.50;;;;;;;-148.56;100.00;61375.16;4973024;28;20045;-32
2022/03/26 02:02:54;;;;;;;4.32;2.42;;;;;;;-148.56;100.00;61375.16;4970576;28;20675;-32
2022/03/26 02:05:20;;;;;;;2.83;2.53;;;;;;;-148.56;100.00;61375.16;4972216;28;20077;-32
2022/03/26 02:07:46;;;;;;;3.40;2.60;;;;;;;-148.56;100.00;61375.16;4970630;28;20050;-30
2022/03/26 02:10:12;;;;;;;3.33;2.40;;;;;;;-148.56;100.00;61375.16;4973464;28;20030;-33
2022/03/26 02:12:38;;;;;;;3.95;2.75;;;;;;;-148.56;100.00;61375.16;4969069;28;20024;-30
2022/03/26 02:15:04;;;;;;;3.58;2.65;;;;;;;-148.56;100.00;61375.16;4952625;28;20038;-33
2022/03/26 02:17:29;;;;;;;5.03;2.67;;;;;;;-148.56;100.00;61375.16;4969266;28;20026;-31
2022/03/26 02:19:55;;;;;;;4.20;2.92;;;;;;;-148.56;100.00;61375.16;4970301;28;20034;-34
2022/03/26 02:22:21;;;;;;;3.95;2.75;;;;;;;-148.56;100.00;61375.16;4969280;28;20046;-29
2022/03/26 02:24:48;;;;;;;3.47;2.72;;;;;;;-148.56;100.00;61375.16;4969102;28;20280;-34
2022/03/26 02:27:13;;;;;;;3.30;2.63;;;;;;;-148.56;100.00;61375.16;4970699;28;20037;-32
2022/03/26 02:29:38;;;;;;;3.17;2.60;;;;;;;-148.56;100.00;61375.16;4969474;28;20571;-36
2022/03/26 02:32:05;;;;;;;3.15;2.42;;;;;;;-148.56;100.00;61375.16;4969063;28;20042;-33
2022/03/26 02:34:30;;;;;;;3.65;2.53;;;;;;;-148.56;100.00;61375.16;4969592;28;20113;-33
2022/03/26 02:36:56;;;;;;;4.60;2.67;;;;;;;-148.56;100.00;61375.16;4971940;28;20022;-31
2022/03/26 02:39:22;;;;;;;3.63;2.60;;;;;;;-148.56;100.00;61375.16;4971219;28;20061;-34
2022/03/26 02:41:47;;;;;;;3.88;2.50;;;;;;;-148.56;100.00;61375.16;4969543;28;20039;-33
2022/03/26 02:44:13;;;;;;;3.85;2.70;;;;;;;-148.56;100.00;61375.16;4969296;28;20055;-31
2022/03/26 02:46:38;;;;;;;3.40;2.67;;;;;;;-148.56;100.00;61375.16;4969233;28;20508;-32
2022/03/26 02:49:04;;;;;;;8.98;5.07;;;;;;;-148.56;100.00;61375.16;4968940;28;20046;-28
2022/03/26 02:51:29;;;;;;;13.38;6.22;;;;;;;-148.56;100.00;61375.16;4971814;28;20018;-33
2022/03/26 02:53:54;;;;;;;7.47;3.55;;;;;;;-148.56;100.00;61375.16;4971500;28;20038;-35
2022/03/26 02:56:20;;;;;;;9.23;3.08;;;;;;;-148.56;100.00;61375.16;4970726;28;20030;-33
2022/03/26 02:58:47;;;;;;;4.00;2.92;;;;;;;-148.56;100.00;61375.16;4968941;28;20038;-34
2022/03/26 03:01:13;;;;;;;4.15;2.65;;;;;;;-148.56;100.00;61375.16;4970489;28;20027;-35
2022/03/26 03:03:38;;;;;;;4.18;2.85;;;;;;;-148.56;100.00;61375.16;4970003;28;20037;-32
2022/03/26 03:06:04;;;;;;;5.88;2.65;;;;;;;-148.56;100.00;61375.16;4968830;28;20030;-37
2022/03/26 03:08:29;;;;;;;3.70;2.75;;;;;;;-148.56;100.00;61375.16;4967717;28;20512;-34
2022/03/26 03:10:55;;;;;;;8.77;2.78;;;;;;;-148.56;100.00;61375.16;4951503;28;20208;-31
2022/03/26 03:13:22;;;;;;;4.72;2.40;;;;;;;-148.56;100.00;61375.16;4951834;28;20027;-37
2022/03/26 03:15:50;;;;;;;3.45;2.72;;;;;;;-148.56;100.00;61375.16;4955395;28;20087;-32
2022/03/26 03:18:16;;;;;;;3.75;2.40;;;;;;;-148.56;100.00;61375.16;4951718;28;20132;-32
2022/03/26 03:20:42;;;;;;;3.72;2.47;;;;;;;-148.56;100.00;61375.16;4935899;28;20317;-32
2022/03/26 03:23:07;;;;;;;3.97;2.60;;;;;;;-148.56;100.00;61375.16;4954015;28;20030;-35
2022/03/26 03:25:32;;;;;;;3.15;2.60;;;;;;;-148.56;100.00;61375.16;4952623;28;20023;-36
2022/03/26 03:27:58;;;;;;;3.67;2.60;;;;;;;-148.56;100.00;61375.16;4958286;28;20496;-31
2022/03/26 03:30:25;;;;;;;4.13;2.72;;;;;;;-148.56;100.00;61375.16;4968653;28;20484;-33
2022/03/26 03:32:50;;;;;;;3.63;2.40;;;;;;;-148.56;100.00;61375.16;4965563;28;20026;-29
2022/03/26 03:35:16;;;;;;;5.43;2.78;;;;;;;-148.56;100.00;61375.16;4968552;28;20034;-33
2022/03/26 03:37:41;;;;;;;4.78;2.65;;;;;;;-148.56;100.00;61375.16;4970958;28;20041;-33
2022/03/26 03:40:07;;;;;;;3.08;2.33;;;;;;;-148.56;100.00;61375.16;4968750;28;20114;-35
2022/03/26 03:42:33;;;;;;;3.63;2.50;;;;;;;-148.56;100.00;61375.16;4950647;28;20536;-32
2022/03/26 03:44:59;;;;;;;3.22;2.70;;;;;;;-148.56;100.00;61375.16;4967881;28;20070;-32
2022/03/26 03:47:24;;;;;;;3.00;2.70;;;;;;;-148.56;100.00;61375.16;4971088;28;20405;-32
2022/03/26 03:49:50;;;;;;;2.70;2.50;;;;;;;-148.56;100.00;61375.16;4969832;28;20026;-31
2022/03/26 03:52:16;;;;;;;4.80;2.65;;;;;;;-148.56;100.00;61375.16;4969922;28;20030;-34
2022/03/26 03:54:41;;;;;;;4.00;2.70;;;;;;;-148.56;100.00;61375.16;4968376;28;20034;-33
2022/03/26 03:57:07;;;;;;;2.83;2.20;;;;;;;-148.56;100.00;61375.16;4968498;28;20026;-32
2022/03/26 03:59:32;;;;;;;4.50;2.28;;;;;;;-148.56;100.00;61375.16;4967327;28;20045;-36
2022/03/26 04:01:58;;;;;;;5.10;2.50;;;;;;;-148.56;100.00;61375.16;4969642;28;20062;-33
2022/03/26 04:04:23;;;;;;;6.78;2.78;;;;;;;-148.56;100.00;61375.16;4970927;28;20042;-34
2022/03/26 04:06:48;;;;;;;3.58;2.50;;;;;;;-148.56;100.00;61375.16;4974645;28;20473;-32
2022/03/26 04:09:14;;;;;;;3.42;2.50;;;;;;;-148.56;100.00;61375.16;4971808;28;20023;-33
2022/03/26 04:11:40;;;;;;;3.00;2.40;;;;;;;-148.56;100.00;61375.16;4970820;28;20031;-32
2022/03/26 04:14:06;;;;;;;2.88;2.40;;;;;;;-148.56;100.00;61375.16;4973433;28;20069;-30
2022/03/26 04:16:31;;;;;;;2.70;2.33;;;;;;;-148.56;100.00;61375.16;4973420;28;20030;-31
2022/03/26 04:18:58;;;;;;;3.85;2.35;;;;;;;-148.56;100.00;61375.16;4973580;28;20030;-34
2022/03/26 04:21:24;;;;;;;2.75;2.17;;;;;;;-148.56;100.00;61375.16;4972053;28;20157;-35
2022/03/26 04:23:49;;;;;;;3.63;2.45;;;;;;;-148.56;100.00;61375.16;4970838;28;20411;-34
2022/03/26 04:26:15;;;;;;;3.25;2.47;;;;;;;-148.56;100.00;61375.16;4970590;28;20030;-33
2022/03/26 04:28:40;;;;;;;3.10;2.50;;;;;;;-148.56;100.00;61375.16;4971832;28;20468;-37
2022/03/26 04:31:05;;;;;;;3.35;2.50;;;;;;;-148.56;100.00;61375.16;4971604;28;20501;-32
2022/03/26 04:33:31;;;;;;;3.05;2.20;;;;;;;-148.56;100.00;61375.16;4972560;28;20038;-33
2022/03/26 04:35:56;;;;;;;4.03;2.22;;;;;;;-148.56;100.00;61375.16;4970148;28;20453;-27
2022/03/26 04:38:22;;;;;;;2.83;2.25;;;;;;;-148.56;100.00;61375.16;4970252;28;20035;-33
2022/03/26 04:40:50;;;;;;;2.55;2.17;;;;;;;-148.56;100.00;61375.16;4973843;28;20041;-32
2022/03/26 04:43:16;;;;;;;2.42;2.20;;;;;;;-148.56;100.00;61375.16;4973544;28;20030;-35
2022/03/26 04:45:42;;;;;;;4.07;2.30;;;;;;;-148.56;100.00;61375.16;4969038;28;20067;-29
2022/03/26 04:48:07;;;;;;;2.47;1.92;;;;;;;-148.56;100.00;61375.16;4971651;28;20876;-31
2022/03/26 04:50:33;;;;;;;2.47;2.08;;;;;;;-148.56;100.00;61375.16;4970254;28;20149;-31
2022/03/26 04:52:58;;;;;;;2.63;2.33;;;;;;;-148.56;100.00;61375.16;4971911;28;20052;-32
2022/03/26 04:55:24;;;;;;;3.53;2.30;;;;;;;-148.56;100.00;61375.16;4966687;28;20100;-32
2022/03/26 04:57:51;;;;;;;2.88;2.28;;;;;;;-148.56;100.00;61375.16;4970280;28;20038;-34
2022/03/26 05:00:17;;;;;;;2.35;2.00;;;;;;;-148.56;100.00;61375.16;4971594;28;20042;-38
2022/03/26 05:02:43;;;;;;;2.53;2.30;;;;;;;-148.56;100.00;61375.16;4971296;28;20061;-34
2022/03/26 05:05:09;;;;;;;2.90;2.20;;;;;;;-148.56;100.00;61375.16;4961076;28;20468;-33
2022/03/26 05:07:48;;;;;;;3.25;2.05;;;;;;;-148.56;100.00;61375.16;4971754;28;20030;-32
2022/03/26 05:10:14;;;;;;;3.53;2.33;;;;;;;-148.56;100.00;61375.16;4968214;28;20110;-35
2022/03/26 05:12:41;;;;;;;2.95;2.40;;;;;;;-148.56;100.00;61375.16;4969186;28;20031;-34
2022/03/26 05:15:07;;;;;;;2.38;2.17;;;;;;;-148.56;100.00;61375.16;4960098;28;20030;-36
2022/03/26 05:17:33;;;;;;;3.10;2.33;;;;;;;-148.56;100.00;61375.16;4970496;28;20030;-35
2022/03/26 05:19:58;;;;;;;3.17;2.22;;;;;;;-148.56;100.00;61375.16;4969755;28;20038;-35
2022/03/26 05:22:24;;;;;;;3.00;2.10;;;;;;;-148.56;100.00;61375.16;4973701;28;20019;-37
2022/03/26 05:24:49;;;;;;;3.03;2.40;;;;;;;-148.56;100.00;61375.16;4968540;28;20018;-29
2022/03/26 05:27:14;;;;;;;3.70;2.40;;;;;;;-148.56;100.00;61375.16;4971351;28;20045;-31
2022/03/26 05:29:40;;;;;;;3.38;2.20;;;;;;;-148.56;100.00;61375.16;4973393;28;20031;-35
2022/03/26 05:32:06;;;;;;;3.10;2.50;;;;;;;-148.56;100.00;61375.16;4968040;28;20038;-38
2022/03/26 05:34:32;;;;;;;3.35;2.00;;;;;;;-148.56;100.00;61375.16;4969277;28;20034;-31
2022/03/26 05:36:58;;;;;;;3.00;2.30;;;;;;;-148.56;100.00;61375.16;4971509;28;20479;-34
2022/03/26 05:39:24;;;;;;;3.33;2.38;;;;;;;-148.56;100.00;61375.16;4969418;28;20646;-32
2022/03/26 05:41:49;;;;;;;2.42;1.95;;;;;;;-148.56;100.00;61375.16;4970237;28;20035;-30
2022/03/26 05:44:14;;;;;;;2.78;2.15;;;;;;;-148.56;100.00;61375.16;4971621;28;20038;-33
2022/03/26 05:46:40;;;;;;;2.55;2.30;;;;;;;-148.56;100.00;61375.16;4971789;28;20171;-35
2022/03/26 05:49:05;;;;;;;2.40;2.15;;;;;;;-148.56;100.00;61375.16;4969763;28;20038;-31
2022/03/26 05:51:31;;;;;;;3.15;2.22;;;;;;;-148.56;100.00;61375.16;4967054;28;20037;-30
2022/03/26 05:53:56;;;;;;;4.03;2.10;;;;;;;-148.56;100.00;61375.16;4966818;28;20026;-30
2022/03/26 05:56:21;;;;;;;2.58;2.30;;;;;;;-148.56;100.00;61375.16;4970184;28;20030;-34
2022/03/26 05:58:50;;;;;;;2.88;2.42;;;;;;;-148.56;100.00;61375.16;4968946;28;20026;-35
2022/03/26 06:01:15;;;;;;;2.90;2.33;;;;;;;-148.56;100.00;61375.16;4970217;28;20452;-33
2022/03/26 06:03:41;;;;;;;2.63;1.77;;;;;;;-148.56;100.00;61375.16;4969830;28;20023;-25
2022/03/26 06:06:06;;;;;;;2.65;2.15;;;;;;;-148.56;100.00;61375.16;4970516;28;20042;-31
2022/03/26 06:08:31;;;;;;;2.58;2.33;;;;;;;-148.56;100.00;61375.16;4967137;28;20038;-38
2022/03/26 06:10:57;;;;;;;2.42;2.13;;;;;;;-148.56;100.00;61375.16;4970825;28;20034;-31
2022/03/26 06:13:22;;;;;;;2.58;2.00;;;;;;;-148.56;100.00;61375.16;4969353;28;20035;-32
2022/03/26 06:15:48;;;;;;;2.35;2.10;;;;;;;-148.56;100.00;61375.16;4971250;28;20053;-34
2022/03/26 06:18:13;;;;;;;2.13;1.92;;;;;;;-148.56;100.00;61375.16;4968396;28;20048;-33
2022/03/26 06:20:38;;;;;;;4.25;2.10;;;;;;;-148.56;100.00;61375.16;4969131;28;20022;-32
2022/03/26 06:23:04;;;;;;;2.58;2.17;;;;;;;-148.56;100.00;61375.16;4965789;28;20030;-33
2022/03/26 06:25:29;;;;;;;3.80;2.00;;;;;;;-148.56;100.00;61375.16;4968477;28;20108;-34
2022/03/26 06:27:55;;;;;;;3.08;2.40;;;;;;;-148.56;100.00;61375.16;4968909;28;20026;-41
2022/03/26 06:30:20;;;;;;;2.17;1.95;;;;;;;-148.56;100.00;61375.16;4969775;28;20022;-34
2022/03/26 06:32:46;;;;;;;3.63;2.53;;;;;;;-148.56;100.00;61375.16;4950578;28;20035;-34
2022/03/26 06:35:11;;;;;;;3.00;2.10;;;;;;;-148.56;100.00;61375.16;4970013;28;20054;-32
2022/03/26 06:37:37;;;;;;;5.80;2.25;;;;;;;-148.56;100.00;61375.16;4973123;28;20041;-32
2022/03/26 06:40:02;;;;;;;2.40;2.20;;;;;;;-148.56;100.00;61375.16;4971278;28;20035;-32
2022/03/26 06:42:28;;;;;;;2.50;2.20;;;;;;;-148.56;100.00;61375.16;4966604;28;20055;-32
2022/03/26 06:44:59;;;;;;;2.83;2.10;;;;;;;-148.56;100.00;61375.16;4969690;28;20025;-31
2022/03/26 06:47:27;;;;;;;3.58;2.40;;;;;;;-148.56;100.00;61375.16;4969264;28;20516;-34
2022/03/26 06:49:53;;;;;;;2.47;2.28;;;;;;;-148.56;100.00;61375.16;4968049;28;20537;-35
2022/03/26 06:52:19;;;;;;;2.58;2.10;;;;;;;-148.56;100.00;61375.16;4970162;28;20034;-32
2022/03/26 06:54:45;;;;;;;3.20;2.22;;;;;;;-148.56;100.00;61375.16;4967168;28;20034;-31
2022/03/26 06:57:10;;;;;;;2.72;2.05;;;;;;;-148.56;100.00;61375.16;4968661;28;20560;-28
2022/03/26 06:59:36;;;;;;;3.45;2.10;;;;;;;-148.56;100.00;61375.16;4972780;28;20030;-32
2022/03/26 07:02:01;;;;;;;2.20;2.00;;;;;;;-148.56;100.00;61375.16;4968393;28;20027;-34
2022/03/26 07:04:26;;;;;;;2.75;2.10;;;;;;;-148.56;100.00;61375.16;4969478;28;20030;-31
2022/03/26 07:06:52;;;;;;;6.53;2.60;;;;;;;-148.56;100.00;61375.16;4969631;28;20746;-36
2022/03/26 07:09:17;;;;;;;2.95;2.50;;;;;;;-148.56;100.00;61375.16;4966734;28;20085;-36
2022/03/26 07:11:43;;;;;;;4.13;3.10;;;;;;;-148.56;100.00;61375.16;4968642;28;20030;-34
2022/03/26 07:14:08;;;;;;;4.85;3.33;;;;;;;-148.56;100.00;61375.16;4967339;28;20678;-35
2022/03/26 07:16:34;;;;;;;4.53;3.40;;;;;;;-148.56;100.00;61375.16;4961740;28;20031;-34
2022/03/26 07:18:59;;;;;;;9.43;3.97;;;;;;;-148.56;100.00;61375.16;4963555;28;20030;-33
2022/03/26 07:21:24;;;;;;;8.23;4.40;;;;;;;-148.56;100.00;61375.16;4960937;28;20906;-33
2022/03/26 07:23:51;;;;;;;10.73;4.82;;;;;;;-148.56;100.00;61375.16;4962769;28;20038;-31
2022/03/26 07:26:17;;;;;;;11.18;4.40;;;;;;;-148.56;100.00;61375.16;4960289;28;20732;-34
2022/03/26 07:28:42;;;;;;;6.82;3.78;;;;;;;-148.56;100.00;61375.16;4955130;28;20034;-32
2022/03/26 07:31:08;;;;;;;12.38;4.05;;;;;;;-148.56;100.00;61375.16;4941380;28;20035;-34
2022/03/26 07:33:33;;;;;;;11.40;4.57;;;;;;;-148.56;100.00;61375.16;4955315;28;20054;-34
2022/03/26 07:35:59;;;;;;;12.27;4.43;;;;;;;-148.56;100.00;61375.16;4938759;28;20019;-35
2022/03/26 07:38:24;;;;;;;11.35;5.05;;;;;;;-148.56;100.00;61375.16;4965365;28;20027;-34
2022/03/26 07:40:50;;;;;;;8.70;4.05;;;;;;;-148.56;100.00;61375.16;4961501;28;20022;-37
2022/03/26 07:43:15;;;;;;;8.43;4.60;;;;;;;-148.56;100.00;61375.16;4967514;28;20026;-30
2022/03/26 07:45:41;;;;;;;16.30;4.82;;;;;;;-148.56;100.00;61375.16;4965180;28;20026;-33
2022/03/26 07:48:06;;;;;;;10.32;4.70;;;;;;;-148.56;100.00;61375.16;4968382;28;20026;-33
2022/03/26 07:50:32;;;;;;;8.45;4.50;;;;;;;-148.56;100.00;61375.16;4966646;28;20035;-35
2022/03/26 07:52:57;;;;;;;10.88;5.07;;;;;;;-148.56;100.00;61375.16;4959292;28;20114;-27
2022/03/26 07:55:22;;;;;;;11.88;4.40;;;;;;;-148.56;100.00;61375.16;4967239;28;20037;-35
2022/03/26 07:57:48;;;;;;;7.80;4.15;;;;;;;-148.56;100.00;61375.16;4970013;28;20019;-36
2022/03/26 08:00:14;;;;;;;9.57;4.38;;;;;;;-148.56;100.00;61375.16;4966666;28;20539;-35
2022/03/26 08:02:39;;;;;;;9.90;4.00;;;;;;;-148.56;100.00;61375.16;4965005;28;20085;-32
2022/03/26 08:05:05;;;;;;;9.00;4.47;;;;;;;-148.56;100.00;61375.16;4970000;28;20037;-32
2022/03/26 08:07:31;;;;;;;8.77;3.72;;;;;;;-148.56;100.00;61375.16;4967159;28;20020;-35
2022/03/26 08:09:56;;;;;;;8.60;4.43;;;;;;;-148.56;100.00;61375.16;4965180;28;21407;-34
2022/03/26 08:12:22;;;;;;;27.00;18.35;;;;;;;-148.56;100.00;61375.16;4963882;28;20118;-29
2022/03/26 08:14:48;;;;;;;11.93;6.72;;;;;;;-148.56;100.00;61375.16;4959410;28;20030;-32
2022/03/26 08:17:14;;;;;;;11.00;5.85;;;;;;;-148.56;100.00;61375.16;4965795;28;20093;-32
2022/03/26 08:19:39;;;;;;;9.98;5.80;;;;;;;-148.56;100.00;61375.16;4966699;28;20034;-31
2022/03/26 08:22:05;;;;;;;14.60;7.40;;;;;;;-148.56;100.00;61375.16;4944256;28;20039;-30
2022/03/26 08:24:30;;;;;;;14.32;5.45;;;;;;;-148.56;100.00;61375.16;4965769;28;20030;-36
2022/03/26 08:26:55;;;;;;;12.25;5.20;;;;;;;-148.56;100.00;61375.16;4968338;28;20704;-35
2022/03/26 08:29:21;;;;;;;8.75;4.65;;;;;;;-148.56;100.00;61375.16;4968704;28;20529;-31
2022/03/26 08:31:46;;;;;;;17.33;5.07;;;;;;;-148.56;100.00;61375.16;4966806;28;20551;-32
2022/03/26 08:34:12;;;;;;;9.75;4.10;;;;;;;-148.56;100.00;61375.16;4967653;28;20086;-32
2022/03/26 08:36:37;;;;;;;10.32;4.20;;;;;;;-148.56;100.00;61375.16;4962183;28;20042;-32
2022/03/26 08:39:03;;;;;;;6.18;3.80;;;;;;;-148.56;100.00;61375.16;4966569;28;20046;-32
2022/03/26 08:41:28;;;;;;;7.88;4.28;;;;;;;-148.56;100.00;61375.16;4968223;28;20022;-33
2022/03/26 08:43:54;;;;;;;9.30;3.92;;;;;;;-148.56;100.00;61375.16;4966668;28;20033;-32
2022/03/26 08:46:20;;;;;;;6.80;3.88;;;;;;;-148.56;100.00;61375.16;4967110;28;20030;-32
2022/03/26 08:48:46;;;;;;;7.68;4.07;;;;;;;-148.56;100.00;61375.16;4967471;28;20181;-33
2022/03/26 08:51:12;;;;;;;7.25;3.90;;;;;;;-148.56;100.00;61375.16;4964268;28;20034;-33
2022/03/26 08:53:37;;;;;;;7.57;3.90;;;;;;;-148.56;100.00;61375.16;4964421;28;20615;-32
2022/03/26 08:56:04;;;;;;;8.95;3.90;;;;;;;-148.56;100.00;61375.16;4962834;28;20089;-35
2022/03/26 08:58:30;;;;;;;8.38;3.83;;;;;;;-148.56;100.00;61375.16;4966396;28;20157;-35
2022/03/26 09:00:55;;;;;;;8.10;3.60;;;;;;;-148.56;100.00;61375.16;4965320;28;20046;-34
2022/03/26 09:03:21;;;;;;;8.18;3.15;;;;;;;-148.56;100.00;61375.16;4965494;28;20081;-33
2022/03/26 09:05:47;;;;;;;8.43;3.63;;;;;;;-148.56;100.00;61375.16;4963233;28;20030;-32
2022/03/26 09:08:13;;;;;;;7.13;3.25;;;;;;;-148.56;100.00;61375.16;4964826;28;20034;-34
2022/03/26 09:10:38;;;;;;;7.85;3.13;;;;;;;-148.56;100.00;61375.16;4964048;28;20065;-32
2022/03/26 09:13:04;;;;;;;6.47;3.05;;;;;;;-148.56;100.00;61375.16;4931812;28;20034;-30
2022/03/26 09:15:29;;;;;;;6.05;3.45;;;;;;;-148.56;100.00;61375.16;4962842;28;20023;-34
2022/03/26 09:17:55;;;;;;;5.82;2.97;;;;;;;-148.56;100.00;61375.16;4963908;28;20037;-33
2022/03/26 09:20:21;;;;;;;8.32;3.03;;;;;;;-148.56;100.00;61375.16;4963373;28;20039;-33
2022/03/26 09:22:46;;;;;;;5.32;3.25;;;;;;;-148.56;100.00;61375.16;4961561;28;20027;-33
2022/03/26 09:25:12;;;;;;;4.43;3.10;;;;;;;-148.56;100.00;61375.16;4966617;28;20031;-33
2022/03/26 09:27:37;;;;;;;8.15;5.22;;;;;;;-148.56;100.00;61375.16;4953114;28;20424;-30
2022/03/26 09:30:04;;;;;;;27.42;18.90;;;;;;;-148.56;100.00;61375.16;4956061;28;20026;-29
2022/03/26 09:32:29;;;;;;;41.67;27.60;;;;;;;-148.56;100.00;61375.16;4963705;28;20859;-37
2022/03/26 09:34:55;;;;;;;36.22;27.90;;;;;;;-148.56;100.00;61375.16;4964490;28;20038;-31
2022/03/26 09:37:20;;;;;;;52.15;29.15;;;;;;;-148.56;100.00;61375.16;4959686;28;20041;-32
2022/03/26 09:39:46;;;;;;;44.40;27.00;;;;;;;-148.56;100.00;61375.16;4966360;28;20461;-37
2022/03/26 09:42:11;;;;;;;38.72;24.58;;;;;;;-148.56;100.00;61375.16;4966514;28;20034;-34
2022/03/26 09:44:37;;;;;;;37.92;23.52;;;;;;;-148.56;100.00;61375.16;4964737;28;20026;-36
2022/03/26 09:47:06;;;;;;;36.25;23.00;;;;;;;-148.56;100.00;61375.16;4969172;28;20034;-33
2022/03/26 09:49:31;;;;;;;31.85;22.27;;;;;;;-148.56;100.00;61375.16;4966657;28;20051;-33
2022/03/26 09:51:57;;;;;;;35.90;22.00;;;;;;;-148.56;100.00;61375.16;4968010;28;20022;-35
2022/03/26 09:54:23;;;;;;;31.73;22.05;;;;;;;-148.56;100.00;61375.16;4967549;28;20472;-33
2022/03/26 09:56:48;;;;;;;31.48;21.65;;;;;;;-148.56;100.00;61375.16;4963582;28;20037;-34
2022/03/26 09:59:14;;;;;;;28.63;20.95;;;;;;;-148.56;100.00;61375.16;4960828;28;20464;-33
2022/03/26 10:01:39;;;;;;;30.38;18.42;;;;;;;-148.56;100.00;61375.16;4969433;28;20027;-33
2022/03/26 10:04:18;;;;;;;25.50;16.27;;;;;;;-148.56;100.00;61375.16;4971313;28;20946;-33
2022/03/26 10:06:57;;;;;;;23.40;15.40;;;;;;;-148.56;100.00;61375.16;4966122;28;20050;-34
2022/03/26 10:09:45;;;;;;;19.73;13.25;;;;;;;-148.56;100.00;61375.16;4965313;28;20034;-35
2022/03/26 10:12:21;;;;;;;21.67;13.48;;;;;;;-148.56;100.00;61375.16;4951656;28;20066;-30
2022/03/26 10:14:53;;;;;;;17.10;11.73;;;;;;;-148.56;100.00;61375.16;4963627;28;20133;-33
2022/03/26 10:17:24;;;;;;;23.45;11.75;;;;;;;-148.56;100.00;61375.16;4964715;28;20034;-28
2022/03/26 10:20:12;;;;;;;17.02;10.80;;;;;;;-148.56;100.00;61375.16;4965898;28;20026;-33
2022/03/26 10:22:56;;;;;;;19.20;10.55;;;;;;;-148.56;100.00;61375.16;4969491;28;20033;-34
2022/03/26 10:25:22;;;;;;;16.00;9.80;;;;;;;-148.56;100.00;61375.16;4967528;28;20827;-33
2022/03/26 10:27:57;;;;;;;16.70;9.45;;;;;;;-148.56;100.00;61375.16;4966217;28;20030;-32
2022/03/26 10:33:27;;;;;;;14.38;8.75;;;;;;;-148.56;100.00;61375.16;4965430;28;20706;-31
2022/03/26 10:35:57;;;;;;;17.80;8.68;;;;;;;-148.56;100.00;61375.16;4963008;28;20039;-29
2022/03/26 10:38:42;;;;;;;15.63;9.02;;;;;;;-148.56;100.00;61375.16;4964522;28;20090;-32
2022/03/26 10:41:08;;;;;;;14.00;7.45;;;;;;;-148.56;100.00;61375.16;4967036;28;20058;-34
2022/03/26 10:43:34;;;;;;;14.95;7.63;;;;;;;-148.56;100.00;61375.16;4965041;28;20031;-34
2022/03/26 10:46:01;;;;;;;15.50;7.93;;;;;;;-148.56;100.00;61375.16;4966860;28;20832;-31
2022/03/26 10:48:27;;;;;;;13.40;7.03;;;;;;;-148.56;100.00;61375.16;4966124;28;20033;-27
2022/03/26 10:50:57;;;;;;;13.93;7.30;;;;;;;-148.56;100.00;61375.16;4967783;28;20040;-31
2022/03/26 10:53:22;;;;;;;13.30;7.03;;;;;;;-148.56;100.00;61375.16;4966942;28;20030;-31
2022/03/26 10:55:48;;;;;;;10.88;6.22;;;;;;;-148.56;100.00;61375.16;4944425;28;20034;-31
2022/03/26 10:58:13;;;;;;;15.25;6.25;;;;;;;-148.56;100.00;61375.16;4966076;28;20501;-32
2022/03/26 11:00:39;;;;;;;10.18;6.68;;;;;;;-148.56;100.00;61375.16;4938891;28;20516;-29
2022/03/26 11:03:04;;;;;;;13.05;6.30;;;;;;;-148.56;100.00;61375.16;4967099;28;20093;-31
2022/03/26 11:05:33;;;;;;;18.10;6.40;;;;;;;-148.56;100.00;61375.16;4969729;28;20034;-31